Share

Bangkok (Don Mueang), Thailand

3:05 AM ICT on April 25, 2014 (GMT +0700)
Khu Khot (IPATHUMT2) Elev 15 ft | 13.96 °N, 100.65 °E | Change Station

Current weather conditions updated 6 seconds ago

Mostly Cloudy
Mostly Cloudy
85.3 °F
Feels Like 100 °F
N
1.6
Wind Variable Wind from SE
Gusts 1.6 mph
Sunrise 5:58 AM
Sunset 6:32 PM
Moon Waning Crescent

Today is forecast to be Cooler than yesterday.

Pressure 29.71 in
Visibility 6.2 miles
Clouds Few 2000 ft
Mostly Cloudy 30000 ft
Heat Index 100 °F
Dew Point 80 °F
Humidity 84%
Rainfall 0.00 in
Snow Depth Not available.
UV 0 out of 16
Pollen Not available.
Air Quality Not available.
Flu Activity Not available.
METAR VTBD 241930Z 17007KT 9999 FEW020 BKN300 30/26 Q1006 NOSIG

More Conditions Fewer Conditions

Pressure 29.71 in
Visibility 6.2 miles
Clouds Few 2000 ft
Mostly Cloudy 30000 ft
Heat Index 100 °F
Dew Point 80 °F
Humidity 84%
Rainfall 0.00 in
Snow Depth Not available.
UV 0 out of 16
Pollen Not available.
Air Quality Not available.
Flu Activity Not available.
METAR VTBD 241930Z 17007KT 9999 FEW020 BKN300 30/26 Q1006 NOSIG

More Conditions Fewer Conditions

10-Day Weather Forecast

Almanac

Astronomy

Apr. 25, 2014 Rise Set
Actual Time 5:58 AM ICT 6:32 PM ICT
Civil Twilight 5:36 AM ICT 6:54 PM ICT
Nautical Twilight 5:11 AM ICT 7:20 PM ICT
Astronomical Twilight 4:45 AM ICT 7:46 PM ICT
Moon 2:42 AM ICT (4/25) 2:59 PM ICT (4/25)
Length of Visible Light 13h 17m
Length of Day
12h 33m
Tomorrow will be 0m 41s longer.
Waning Crescent, 23% of the Moon is Illuminated
Apr 24
Waning Crescent
Apr 29
New
May 6
First Quarter
May 14
Full
May 21
Last Quarter

Yesterday's Extremes

Country Highs Country Lows

Community

  • Sunset at Apalachicola Bay, Florida
    Sunset at Apalachicola Bay, Florida
  • Clouds mov'n in
    Clouds mov'n in
  • Stacked
    Stacked
  • clouds approaching Red Sox Nation
    clouds approaching Red Sox Nation
  • Balance
    Balance

WunderPhotos

Upload Photos

1,704,713 photos uploaded!

Nearby

Snow Depth

Not available.

Coastal Water Temperatures

Place Temperature
No Stations Reporting

Earthquake Activity

City Distance Mag. Time & Date
No recent earthquake activity has been reported nearby.
Minimum magnitude displayed is 2.5.

Nearby Weather Stations

Station Location Temp. Heat Index Dew Point Humidity Wind Precip. Elev Updated Type
Khu Khot, Pathum Thani 85.3 °F 100 °F 80 °F 84% SE  at  1.6 mph 0.00 in / hr 15 ft 3:05 AM ICT Rapid Fire
Patumwan Demonstration School, Bangkok 85.1 °F 98 °F 79 °F 81% SW  at  3.0 mph 0.00 in / hr 46 ft 2:59 AM ICT Normal
Dokmai, Pravet, Bangkok 85.3 °F 94 °F 75 °F 72% SSW  at  3.0 mph 0.00 in / hr 10 ft 3:05 AM ICT Rapid Fire

Show More Stations Show Fewer Stations

What do you think?

We're not finished. Please let us know what you like, what you don't like, and what you are still missing.